createdAt,value
2019-01-21T00:00:42.646Z,22.23
2019-01-21T00:03:14.327Z,21.57
2019-01-21T00:05:37.607Z,22.27
2019-01-21T00:08:05.942Z,21.47
2019-01-21T00:10:34.241Z,22.23
2019-01-21T00:13:02.502Z,23.47
2019-01-21T00:15:30.767Z,22.00
2019-01-21T00:17:59.089Z,21.53
2019-01-21T00:20:27.335Z,21.73
2019-01-21T00:22:55.655Z,21.33
2019-01-21T00:25:23.892Z,21.57
2019-01-21T00:27:52.154Z,21.57
2019-01-21T00:30:20.454Z,22.97
2019-01-21T00:32:48.719Z,21.33
2019-01-21T00:35:17.029Z,20.70
2019-01-21T00:37:45.288Z,22.50
2019-01-21T00:40:13.662Z,21.27
2019-01-21T00:42:41.966Z,22.53
2019-01-21T00:45:10.242Z,22.73
2019-01-21T00:47:38.759Z,23.07
2019-01-21T00:50:07.991Z,21.00
2019-01-21T00:52:36.327Z,21.63
2019-01-21T00:55:05.311Z,22.63
2019-01-21T00:57:33.626Z,23.10
2019-01-21T01:00:01.894Z,21.83
2019-01-21T01:02:30.179Z,21.87
2019-01-21T01:04:58.445Z,22.00
2019-01-21T01:07:26.714Z,22.13
2019-01-21T01:09:55.825Z,20.53
2019-01-21T01:12:24.358Z,21.17
2019-01-21T01:14:53.390Z,20.50
2019-01-21T01:17:21.654Z,22.27
2019-01-21T01:19:49.943Z,21.43
2019-01-21T01:22:18.670Z,20.93
2019-01-21T01:24:46.948Z,21.57
2019-01-21T01:27:15.202Z,21.37
2019-01-21T01:29:43.454Z,19.53
2019-01-21T01:32:11.761Z,21.47
2019-01-21T01:34:40.850Z,20.53
2019-01-21T01:37:09.109Z,20.70
2019-01-21T01:39:37.507Z,20.47
2019-01-21T01:42:05.751Z,20.87
2019-01-21T01:44:34.038Z,21.10
2019-01-21T01:47:03.082Z,20.33
2019-01-21T01:49:31.384Z,20.60
2019-01-21T01:51:59.675Z,22.27
2019-01-21T01:54:27.937Z,21.30
2019-01-21T01:56:56.235Z,21.37
2019-01-21T01:59:24.883Z,20.57
2019-01-21T02:01:53.205Z,21.97
2019-01-21T02:04:21.509Z,20.40
2019-01-21T02:06:49.770Z,21.53
2019-01-21T02:09:18.009Z,20.80
2019-01-21T02:11:46.264Z,21.40
2019-01-21T02:14:14.587Z,21.43
2019-01-21T02:16:42.866Z,22.37
2019-01-21T02:19:11.115Z,21.10
2019-01-21T02:21:39.366Z,19.47
2019-01-21T02:24:08.126Z,19.60
2019-01-21T02:26:46.283Z,20.33
2019-01-21T02:29:27.310Z,20.97
2019-01-21T02:32:46.253Z,20.07
2019-01-21T02:36:31.046Z,19.73
2019-01-21T02:39:18.091Z,19.53
2019-01-21T02:42:57.595Z,21.23
2019-01-21T02:45:48.451Z,19.70
2019-01-21T02:48:27.079Z,21.27
2019-01-21T02:52:04.630Z,20.10
2019-01-21T02:55:02.259Z,19.83
2019-01-21T02:57:41.290Z,18.97
2019-01-21T03:00:26.202Z,20.27
2019-01-21T03:03:05.745Z,21.03
2019-01-21T03:06:58.166Z,21.30
2019-01-21T03:09:51.638Z,21.10
2019-01-21T03:12:35.204Z,19.53
2019-01-21T03:15:16.393Z,21.27
2019-01-21T03:20:00.541Z,21.47
2019-01-21T03:23:16.994Z,20.30
2019-01-21T03:26:27.868Z,19.70
2019-01-21T03:29:06.034Z,20.53
2019-01-21T03:33:49.987Z,23.07
2019-01-21T03:36:33.576Z,18.93
2019-01-21T03:39:56.666Z,20.43
2019-01-21T03:42:36.203Z,21.23
2019-01-21T03:45:29.677Z,20.13
2019-01-21T03:48:04.858Z,20.97
2019-01-21T03:52:59.446Z,21.67
2019-01-21T03:55:27.792Z,20.50
2019-01-21T03:58:26.252Z,20.50
2019-01-21T04:01:07.630Z,20.43
2019-01-21T04:05:59.334Z,20.67
2019-01-21T04:08:49.571Z,21.13
2019-01-21T04:11:30.970Z,19.40
2019-01-21T04:14:11.024Z,21.57
2019-01-21T04:17:06.159Z,20.77
2019-01-21T04:19:48.959Z,20.87
2019-01-21T04:22:31.295Z,21.03
2019-01-21T04:25:17.453Z,19.37
2019-01-21T04:28:03.328Z,20.17
2019-01-21T04:32:52.827Z,18.87
2019-01-21T04:35:40.594Z,18.37
2019-01-21T04:40:21.359Z,19.37
2019-01-21T04:45:02.461Z,18.73
2019-01-21T04:47:42.848Z,18.67
2019-01-21T04:52:26.738Z,19.43
2019-01-21T04:56:06.863Z,19.20
2019-01-21T04:58:44.911Z,19.70
2019-01-21T05:01:24.330Z,18.63
2019-01-21T05:04:19.964Z,19.50
2019-01-21T05:08:10.587Z,20.67
2019-01-21T05:13:04.124Z,18.37
2019-01-21T05:15:48.505Z,18.87
2019-01-21T05:18:28.525Z,18.23
2019-01-21T05:21:08.602Z,18.27
2019-01-21T05:24:50.468Z,20.70
2019-01-21T05:27:27.930Z,19.10
2019-01-21T05:31:06.847Z,18.90
2019-01-21T05:34:48.182Z,17.23
2019-01-21T05:37:32.552Z,17.80
2019-01-21T05:40:43.517Z,18.53
2019-01-21T05:43:28.570Z,17.13
2019-01-21T05:46:07.775Z,19.03
2019-01-21T05:48:49.328Z,19.30
2019-01-21T05:52:03.618Z,17.63
2019-01-21T05:54:44.987Z,17.77
2019-01-21T05:57:27.138Z,18.97
2019-01-21T06:00:06.410Z,19.47
2019-01-21T06:02:49.494Z,19.37
2019-01-21T06:07:32.674Z,17.40
2019-01-21T06:10:08.047Z,18.40
2019-01-21T06:12:58.300Z,17.90
2019-01-21T06:15:42.865Z,17.37
2019-01-21T06:18:23.582Z,18.87
2019-01-21T06:23:10.738Z,19.40
2019-01-21T06:27:52.780Z,19.87
2019-01-21T06:30:38.403Z,19.30
2019-01-21T06:34:19.870Z,18.60
2019-01-21T06:36:57.659Z,17.47
2019-01-21T06:39:46.614Z,18.37
2019-01-21T06:42:31.032Z,19.63
2019-01-21T06:45:41.431Z,18.20
2019-01-21T06:49:31.368Z,19.13
2019-01-21T06:52:28.632Z,17.93
2019-01-21T06:55:08.186Z,17.93
2019-01-21T06:57:54.456Z,20.07
2019-01-21T07:00:37.098Z,20.37
2019-01-21T07:03:52.154Z,19.03
2019-01-21T07:06:31.287Z,18.60
2019-01-21T07:09:11.201Z,19.17
2019-01-21T07:11:49.984Z,18.33
2019-01-21T07:14:43.487Z,18.53
2019-01-21T07:17:28.382Z,17.80
2019-01-21T07:20:36.749Z,17.50
2019-01-21T07:23:17.559Z,17.03
2019-01-21T07:25:57.983Z,18.30
2019-01-21T07:28:41.494Z,17.03
2019-01-21T07:31:29.757Z,18.47
2019-01-21T07:34:07.813Z,17.87
2019-01-21T07:36:48.898Z,18.17
2019-01-21T07:40:01.460Z,17.23
2019-01-21T07:42:44.557Z,17.20
2019-01-21T07:45:31.172Z,17.20
2019-01-21T07:48:21.174Z,17.60
2019-01-21T07:53:05.036Z,17.00
2019-01-21T07:55:59.215Z,17.97
2019-01-21T07:58:45.158Z,18.30
2019-01-21T08:01:27.364Z,17.83
2019-01-21T08:04:09.243Z,18.80
2019-01-21T08:07:05.030Z,18.20
2019-01-21T08:09:47.386Z,17.17
2019-01-21T08:12:31.409Z,18.07
2019-01-21T08:16:07.050Z,18.30
2019-01-21T08:21:52.256Z,17.30
2019-01-21T08:26:40.039Z,18.50
2019-01-21T08:29:54.186Z,18.70
2019-01-21T08:32:41.958Z,19.13
2019-01-21T08:35:24.124Z,19.03
2019-01-21T08:39:28.615Z,20.53
2019-01-21T08:44:13.097Z,18.80
2019-01-21T08:46:50.310Z,17.73
2019-01-21T08:51:36.144Z,18.40
2019-01-21T08:54:24.478Z,17.57
2019-01-21T08:59:06.181Z,18.60
2019-01-21T09:03:51.409Z,17.80
2019-01-21T09:06:41.386Z,19.47
2019-01-21T09:09:29.651Z,18.40
2019-01-21T09:12:07.943Z,19.83
2019-01-21T09:15:17.523Z,18.33
2019-01-21T09:17:57.122Z,17.97
2019-01-21T09:20:58.155Z,18.43
2019-01-21T09:23:47.734Z,18.30
2019-01-21T09:28:34.586Z,18.93
2019-01-21T09:31:21.645Z,18.13
2019-01-21T09:34:07.430Z,19.53
2019-01-21T09:38:56.149Z,18.57
2019-01-21T09:41:43.513Z,18.47
2019-01-21T09:44:20.079Z,18.60
2019-01-21T09:46:48.147Z,19.30
2019-01-21T09:49:15.394Z,19.77
2019-01-21T09:51:55.185Z,18.47
2019-01-21T09:54:23.787Z,19.77
2019-01-21T09:56:55.206Z,20.03
2019-01-21T09:59:24.425Z,20.47
2019-01-21T10:01:54.814Z,19.00
2019-01-21T10:04:29.874Z,19.63
2019-01-21T10:07:11.391Z,20.37
2019-01-21T10:11:51.950Z,20.60
2019-01-21T10:15:00.688Z,20.17
2019-01-21T10:17:39.845Z,19.23
2019-01-21T10:20:19.366Z,19.87
2019-01-21T10:23:08.199Z,19.60
2019-01-21T10:25:49.494Z,19.83
2019-01-21T10:28:42.617Z,20.50
2019-01-21T10:33:28.820Z,19.40
2019-01-21T10:36:06.227Z,19.40
2019-01-21T10:38:45.788Z,19.27
2019-01-21T10:41:22.440Z,18.77
2019-01-21T10:46:05.042Z,18.63
2019-01-21T10:48:44.075Z,17.43
2019-01-21T10:52:00.388Z,17.83
2019-01-21T10:54:38.332Z,18.07
2019-01-21T10:57:48.460Z,18.13
2019-01-21T11:01:25.400Z,17.47
2019-01-21T11:05:07.796Z,18.37
2019-01-21T11:07:47.939Z,18.10
2019-01-21T11:10:25.428Z,17.00
2019-01-21T11:13:02.607Z,17.83
2019-01-21T11:15:41.726Z,18.30
2019-01-21T11:19:23.787Z,17.83
2019-01-21T11:22:04.966Z,18.30
2019-01-21T11:26:07.590Z,18.87
2019-01-21T11:28:47.135Z,17.77
2019-01-21T11:31:28.561Z,17.73
2019-01-21T11:34:06.679Z,18.93
2019-01-21T11:36:53.026Z,18.37
2019-01-21T11:39:45.598Z,17.43
2019-01-21T11:42:31.571Z,17.27
2019-01-21T11:46:15.535Z,18.63
2019-01-21T11:49:23.739Z,16.53
2019-01-21T11:52:08.340Z,18.37
2019-01-21T11:55:49.882Z,17.27
2019-01-21T12:00:36.520Z,18.80
2019-01-21T12:03:16.545Z,16.60
2019-01-21T12:05:57.070Z,18.37
2019-01-21T12:08:59.806Z,19.30
2019-01-21T12:11:36.851Z,18.13
2019-01-21T12:15:15.813Z,17.07
2019-01-21T12:18:05.977Z,18.33
2019-01-21T12:21:05.071Z,17.50
2019-01-21T12:24:50.284Z,18.63
2019-01-21T12:28:26.815Z,19.03
2019-01-21T12:31:09.174Z,17.47
2019-01-21T12:34:46.558Z,18.40
2019-01-21T12:37:57.184Z,17.80
2019-01-21T12:40:53.153Z,17.53
2019-01-21T12:43:47.145Z,17.90
2019-01-21T12:46:48.895Z,18.57
2019-01-21T12:49:32.048Z,18.00
2019-01-21T12:52:12.328Z,16.90
2019-01-21T12:54:48.953Z,17.33
2019-01-21T12:57:39.911Z,17.17
2019-01-21T13:00:26.609Z,18.77
2019-01-21T13:03:06.722Z,17.33
2019-01-21T13:05:45.108Z,18.10
2019-01-21T13:08:30.170Z,18.33
2019-01-21T13:11:08.345Z,17.90
2019-01-21T13:14:04.824Z,18.07
2019-01-21T13:16:41.893Z,17.67
2019-01-21T13:19:23.308Z,19.33
2019-01-21T13:22:00.025Z,17.67
2019-01-21T13:26:50.393Z,18.07
2019-01-21T13:29:27.432Z,17.97
2019-01-21T13:33:18.219Z,17.17
2019-01-21T13:35:57.614Z,17.13
2019-01-21T13:38:36.640Z,17.10
2019-01-21T13:41:15.330Z,17.57
2019-01-21T13:43:57.545Z,18.50
2019-01-21T13:46:53.272Z,17.50
2019-01-21T13:49:32.839Z,18.73
2019-01-21T13:54:16.427Z,18.03
2019-01-21T13:56:56.344Z,17.73
2019-01-21T13:59:38.171Z,18.53
2019-01-21T14:02:12.902Z,18.17
2019-01-21T14:05:11.026Z,18.13
2019-01-21T14:07:53.135Z,16.97
2019-01-21T14:10:34.942Z,17.93
2019-01-21T14:15:20.555Z,18.43
2019-01-21T14:17:57.878Z,17.10
2019-01-21T14:20:48.363Z,18.07
2019-01-21T14:24:28.967Z,18.47
2019-01-21T14:29:14.248Z,17.87
2019-01-21T14:31:52.707Z,17.60
2019-01-21T14:34:38.983Z,17.37
2019-01-21T14:37:17.005Z,18.07
2019-01-21T14:39:51.362Z,18.63
2019-01-21T14:42:31.927Z,18.47
2019-01-21T14:45:18.681Z,19.53
2019-01-21T14:47:58.975Z,19.50
2019-01-21T14:51:12.118Z,19.37
2019-01-21T14:53:54.894Z,18.97
2019-01-21T14:56:36.853Z,18.87
2019-01-21T14:59:29.251Z,19.83
2019-01-21T15:02:06.334Z,19.20
2019-01-21T15:05:02.236Z,17.80
2019-01-21T15:07:42.930Z,16.97
2019-01-21T15:10:40.578Z,18.20
2019-01-21T15:17:33.592Z,18.03
2019-01-21T15:20:11.188Z,16.77
2019-01-21T15:22:54.427Z,18.43
2019-01-21T15:26:03.633Z,19.42
2019-01-21T15:30:45.116Z,19.27
2019-01-21T15:33:57.440Z,18.30
2019-01-21T15:37:43.538Z,19.93
2019-01-21T15:40:28.772Z,18.33
2019-01-21T15:43:08.253Z,19.47
2019-01-21T15:45:52.063Z,17.27
2019-01-21T15:48:33.025Z,19.13
2019-01-21T15:51:17.272Z,18.53
2019-01-21T15:53:57.088Z,17.97
2019-01-21T15:56:54.114Z,20.03
2019-01-21T15:59:52.526Z,19.63
2019-01-21T16:02:34.339Z,18.57
2019-01-21T16:05:25.258Z,19.80
2019-01-21T16:08:03.406Z,19.00
2019-01-21T16:10:50.260Z,20.17
2019-01-21T16:13:28.612Z,19.33
2019-01-21T16:18:12.534Z,19.30
2019-01-21T16:20:54.570Z,17.90
2019-01-21T16:24:08.294Z,19.30
2019-01-21T16:26:46.162Z,19.67
2019-01-21T16:29:38.500Z,20.00
2019-01-21T16:32:21.525Z,20.77
2019-01-21T16:35:07.057Z,20.47
2019-01-21T16:38:12.847Z,19.03
2019-01-21T16:41:55.665Z,20.00
2019-01-21T16:44:23.908Z,19.60
2019-01-21T16:46:52.136Z,20.17
2019-01-21T16:49:20.383Z,21.63
2019-01-21T16:51:48.595Z,20.97
2019-01-21T16:54:16.864Z,20.50
2019-01-21T16:56:45.080Z,20.50
2019-01-21T16:59:13.331Z,21.27
2019-01-21T17:01:41.547Z,19.87
2019-01-21T17:04:09.833Z,19.67
2019-01-21T17:06:39.504Z,19.73
2019-01-21T17:09:09.786Z,18.90
2019-01-21T17:11:37.998Z,20.20
2019-01-21T17:14:10.002Z,19.60
2019-01-21T17:16:41.239Z,20.27
2019-01-21T17:19:09.583Z,18.87
2019-01-21T17:21:37.939Z,20.97
2019-01-21T17:24:06.197Z,21.57
2019-01-21T17:26:34.678Z,20.27
2019-01-21T17:29:02.962Z,20.23
2019-01-21T17:31:31.295Z,20.97
2019-01-21T17:33:59.521Z,20.40
2019-01-21T17:36:27.770Z,19.43
2019-01-21T17:38:56.031Z,20.93
2019-01-21T17:41:24.311Z,20.67
2019-01-21T17:43:52.566Z,18.73
2019-01-21T17:46:20.807Z,19.53
2019-01-21T17:48:49.643Z,21.37
2019-01-21T17:51:17.926Z,19.83
2019-01-21T17:53:51.324Z,19.93
2019-01-21T17:56:14.515Z,25.85
2019-01-21T17:58:42.812Z,21.33
2019-01-21T18:01:11.052Z,22.00
2019-01-21T18:03:39.278Z,22.40
2019-01-21T18:06:07.537Z,20.37
2019-01-21T18:08:35.959Z,20.70
2019-01-21T18:11:05.182Z,20.93
2019-01-21T18:13:33.514Z,20.33
2019-01-21T18:16:01.754Z,19.17
2019-01-21T18:18:30.001Z,19.47
2019-01-21T18:20:58.350Z,20.00
2019-01-21T18:23:26.658Z,19.00
2019-01-21T18:25:54.920Z,20.50
2019-01-21T18:28:23.237Z,19.67
2019-01-21T18:30:51.469Z,20.00
2019-01-21T18:33:19.678Z,19.80
2019-01-21T18:35:47.926Z,19.40
2019-01-21T18:38:16.174Z,21.03
2019-01-21T18:40:44.516Z,20.60
2019-01-21T18:43:12.892Z,26.77
2019-01-21T18:45:41.210Z,22.67
2019-01-21T18:48:10.488Z,20.87
2019-01-21T18:50:46.295Z,22.90
2019-01-21T18:53:14.703Z,21.83
2019-01-21T18:55:42.964Z,21.67
2019-01-21T18:58:11.302Z,22.43
2019-01-21T19:00:39.590Z,21.63
2019-01-21T19:03:08.782Z,21.53
2019-01-21T19:05:37.135Z,21.07
2019-01-21T19:08:06.339Z,22.17
2019-01-21T19:10:34.662Z,21.73
2019-01-21T19:13:03.061Z,21.03
2019-01-21T19:15:32.272Z,21.57
2019-01-21T19:18:00.695Z,21.80
2019-01-21T19:20:30.137Z,21.80
2019-01-21T19:22:58.464Z,20.23
2019-01-21T19:25:26.779Z,21.07
2019-01-21T19:27:55.485Z,20.63
2019-01-21T19:30:25.410Z,20.57
2019-01-21T19:32:53.697Z,27.52
2019-01-21T19:35:25.018Z,23.63
2019-01-21T19:37:53.253Z,21.90
2019-01-21T19:40:22.282Z,22.27
2019-01-21T19:42:50.674Z,23.20
2019-01-21T19:45:18.998Z,24.00
2019-01-21T19:47:47.279Z,23.73
2019-01-21T19:50:18.065Z,24.93
2019-01-21T19:52:46.438Z,24.13
2019-01-21T19:55:18.138Z,23.47
2019-01-21T19:57:46.420Z,24.33
2019-01-21T20:00:17.042Z,24.17
2019-01-21T20:02:45.325Z,22.73
2019-01-21T20:05:13.751Z,22.60
2019-01-21T20:07:43.001Z,22.60
2019-01-21T20:10:14.685Z,22.77
2019-01-21T20:12:42.903Z,23.40
2019-01-21T20:15:11.942Z,24.40
2019-01-21T20:17:40.179Z,23.37
2019-01-21T20:20:12.698Z,23.57
2019-01-21T20:22:41.936Z,22.27
2019-01-21T20:25:11.354Z,23.20
2019-01-21T20:27:39.662Z,23.53
2019-01-21T20:30:10.106Z,23.47
2019-01-21T20:32:38.361Z,22.87
2019-01-21T20:35:06.744Z,23.93
2019-01-21T20:37:35.177Z,25.40
2019-01-21T20:40:04.246Z,24.93
2019-01-21T20:42:32.554Z,24.10
2019-01-21T20:45:00.929Z,25.40
2019-01-21T20:47:29.147Z,25.07
2019-01-21T20:49:58.362Z,24.03
2019-01-21T20:52:27.497Z,25.10
2019-01-21T20:54:57.633Z,24.90
2019-01-21T20:57:24.426Z,23.93
2019-01-21T20:59:53.025Z,24.87
2019-01-21T21:02:21.414Z,25.03
2019-01-21T21:04:49.871Z,24.60
2019-01-21T21:07:18.633Z,24.10
2019-01-21T21:09:46.934Z,23.07
2019-01-21T21:12:16.166Z,24.77
2019-01-21T21:14:45.553Z,24.20
2019-01-21T21:17:13.773Z,23.70
2019-01-21T21:19:42.779Z,23.70
2019-01-21T21:22:11.053Z,24.40
2019-01-21T21:24:39.385Z,24.23
2019-01-21T21:27:07.710Z,24.07
2019-01-21T21:29:36.127Z,24.17
2019-01-21T21:32:04.468Z,25.70
2019-01-21T21:34:32.735Z,23.80
2019-01-21T21:37:00.992Z,24.77
2019-01-21T21:39:29.230Z,25.23
2019-01-21T21:41:57.449Z,26.47
2019-01-21T21:44:27.390Z,24.10
2019-01-21T21:46:55.704Z,32.50
2019-01-21T21:49:24.749Z,27.17
2019-01-21T21:51:53.051Z,25.57
2019-01-21T21:54:21.333Z,25.83
2019-01-21T21:56:49.618Z,24.83
2019-01-21T21:59:17.913Z,25.23
2019-01-21T22:01:46.182Z,25.43
2019-01-21T22:04:14.530Z,26.03
2019-01-21T22:06:42.816Z,24.63
2019-01-21T22:09:11.151Z,24.80
2019-01-21T22:11:39.400Z,24.53
2019-01-21T22:14:07.656Z,25.23
2019-01-21T22:16:35.903Z,24.93
2019-01-21T22:19:05.138Z,33.42
2019-01-21T22:21:33.422Z,26.87
2019-01-21T22:24:01.654Z,25.37
2019-01-21T22:26:29.905Z,25.83
2019-01-21T22:28:58.338Z,25.30
2019-01-21T22:31:26.659Z,24.30
2019-01-21T22:33:54.983Z,25.57
2019-01-21T22:36:23.251Z,25.00
2019-01-21T22:38:52.663Z,25.33
2019-01-21T22:41:20.891Z,25.17
2019-01-21T22:43:49.226Z,25.23
2019-01-21T22:46:17.698Z,24.60
2019-01-21T22:48:45.950Z,26.60
2019-01-21T22:51:14.255Z,25.03
2019-01-21T22:53:42.497Z,24.97
2019-01-21T22:56:11.836Z,25.13
2019-01-21T22:58:40.187Z,25.13
2019-01-21T23:01:20.170Z,23.67
2019-01-21T23:03:48.466Z,25.03
2019-01-21T23:06:16.721Z,25.10
2019-01-21T23:08:45.083Z,24.23
2019-01-21T23:11:13.502Z,24.73
2019-01-21T23:13:41.764Z,25.40
2019-01-21T23:16:09.998Z,25.77
2019-01-21T23:18:40.176Z,24.90
2019-01-21T23:21:08.560Z,24.97
2019-01-21T23:23:36.846Z,25.20
2019-01-21T23:26:05.117Z,26.27
2019-01-21T23:28:33.396Z,25.23
2019-01-21T23:31:01.662Z,25.90
2019-01-21T23:33:29.941Z,25.17
2019-01-21T23:35:58.249Z,24.83
2019-01-21T23:38:26.654Z,26.00
2019-01-21T23:40:54.863Z,24.20
2019-01-21T23:43:23.135Z,25.53
2019-01-21T23:45:51.389Z,25.73
2019-01-21T23:48:19.653Z,24.47
2019-01-21T23:50:47.910Z,26.40
2019-01-21T23:53:16.521Z,25.70
2019-01-21T23:55:44.928Z,24.60
2019-01-21T23:58:13.250Z,25.23
